createdAt,value
2022-11-04T00:01:41.058Z,22.90
2022-11-04T00:04:10.029Z,20.03
2022-11-04T00:06:38.596Z,22.13
2022-11-04T00:09:10.691Z,19.00
2022-11-04T00:11:56.063Z,20.63
2022-11-04T00:14:23.954Z,20.40
2022-11-04T00:17:09.394Z,18.73
2022-11-04T00:19:51.132Z,18.20
2022-11-04T00:22:36.187Z,20.87
2022-11-04T00:25:23.735Z,19.87
2022-11-04T00:28:09.376Z,27.00
2022-11-04T00:30:37.631Z,20.77
2022-11-04T00:33:31.276Z,16.60
2022-11-04T00:35:59.072Z,19.33
2022-11-04T00:38:27.155Z,19.07
2022-11-04T00:40:56.387Z,19.47
2022-11-04T00:43:24.228Z,20.67
2022-11-04T00:45:52.016Z,21.37
2022-11-04T00:48:19.882Z,21.53
2022-11-04T00:50:47.655Z,21.63
2022-11-04T00:53:15.504Z,18.30
2022-11-04T00:55:43.453Z,18.00
2022-11-04T00:58:12.580Z,19.90
2022-11-04T01:00:40.571Z,19.70
2022-11-04T01:03:08.668Z,22.47
2022-11-04T01:05:38.661Z,22.03
2022-11-04T01:08:06.600Z,23.50
2022-11-04T01:10:36.196Z,25.37
2022-11-04T01:13:04.115Z,24.70
2022-11-04T01:15:33.242Z,18.17
2022-11-04T01:18:01.065Z,19.53
2022-11-04T01:20:28.860Z,25.97
2022-11-04T01:22:56.687Z,22.20
2022-11-04T01:25:24.514Z,19.63
2022-11-04T01:27:52.395Z,21.87
2022-11-04T01:30:20.404Z,21.03
2022-11-04T01:32:49.572Z,23.57
2022-11-04T01:35:17.557Z,20.77
2022-11-04T01:37:45.364Z,22.17
2022-11-04T01:40:13.433Z,22.63
2022-11-04T01:42:41.291Z,20.67
2022-11-04T01:45:14.631Z,23.93
2022-11-04T01:47:45.708Z,21.33
2022-11-04T01:50:18.279Z,18.53
2022-11-04T01:52:51.716Z,22.03
2022-11-04T01:55:24.965Z,16.87
2022-11-04T01:57:56.651Z,25.87
2022-11-04T02:00:24.869Z,20.83
2022-11-04T02:02:59.947Z,22.83
2022-11-04T02:05:31.293Z,22.57
2022-11-04T02:08:01.231Z,21.13
2022-11-04T02:10:30.811Z,17.70
2022-11-04T02:13:02.028Z,22.77
2022-11-04T02:15:40.955Z,17.77
2022-11-04T02:18:30.691Z,16.97
2022-11-04T02:21:23.588Z,17.73
2022-11-04T02:24:41.989Z,15.90
2022-11-04T02:27:31.248Z,16.37
2022-11-04T02:30:08.012Z,15.30
2022-11-04T02:32:43.390Z,17.23
2022-11-04T02:35:19.732Z,16.10
2022-11-04T02:37:57.222Z,19.23
2022-11-04T02:40:32.956Z,18.47
2022-11-04T02:43:03.918Z,19.27
2022-11-04T02:45:38.998Z,17.30
2022-11-04T02:48:12.375Z,15.87
2022-11-04T02:50:45.058Z,16.53
2022-11-04T02:53:18.358Z,17.30
2022-11-04T02:55:49.460Z,16.17
2022-11-04T02:58:22.710Z,15.37
2022-11-04T03:00:53.724Z,15.20
2022-11-04T03:03:25.324Z,17.67
2022-11-04T03:05:55.911Z,15.37
2022-11-04T03:08:30.909Z,16.67
2022-11-04T03:11:04.014Z,17.37
2022-11-04T03:13:37.952Z,16.53
2022-11-04T03:16:12.423Z,18.20
2022-11-04T03:18:47.555Z,15.03
2022-11-04T03:21:18.082Z,19.10
2022-11-04T03:23:46.003Z,17.80
2022-11-04T03:26:20.710Z,17.37
2022-11-04T03:28:57.473Z,18.70
2022-11-04T03:31:34.562Z,18.90
2022-11-04T03:34:02.682Z,17.53
2022-11-04T03:36:30.686Z,16.47
2022-11-04T03:38:58.528Z,16.87
2022-11-04T03:41:35.391Z,16.70
2022-11-04T03:44:03.266Z,18.40
2022-11-04T03:46:32.517Z,15.83
2022-11-04T03:49:01.254Z,16.23
2022-11-04T03:51:29.026Z,13.97
2022-11-04T03:53:57.782Z,15.13
2022-11-04T03:57:05.351Z,16.80
2022-11-04T04:00:01.186Z,18.37
2022-11-04T04:02:39.816Z,17.87
2022-11-04T04:05:16.071Z,15.47
2022-11-04T04:07:50.794Z,16.90
2022-11-04T04:10:42.827Z,14.40
2022-11-04T04:13:18.930Z,16.00
2022-11-04T04:15:53.423Z,17.63
2022-11-04T04:18:30.491Z,18.83
2022-11-04T04:21:02.781Z,15.40
2022-11-04T04:23:50.771Z,17.40
2022-11-04T04:26:39.578Z,15.23
2022-11-04T04:29:09.385Z,15.73
2022-11-04T04:31:52.357Z,14.13
2022-11-04T04:34:24.043Z,17.60
2022-11-04T04:36:58.313Z,16.43
2022-11-04T04:39:47.987Z,15.33
2022-11-04T04:42:33.320Z,15.77
2022-11-04T04:45:06.396Z,14.83
2022-11-04T04:47:42.658Z,19.07
2022-11-04T04:50:14.013Z,16.27
2022-11-04T04:52:44.156Z,18.47
2022-11-04T04:55:12.723Z,15.23
2022-11-04T04:57:40.691Z,33.77
2022-11-04T05:00:13.236Z,19.43
2022-11-04T05:02:41.133Z,17.20
2022-11-04T05:05:10.389Z,17.60
2022-11-04T05:07:39.661Z,17.57
2022-11-04T05:10:08.649Z,16.93
2022-11-04T05:12:56.587Z,16.20
2022-11-04T05:15:24.912Z,16.07
2022-11-04T05:17:55.550Z,23.30
2022-11-04T05:20:23.560Z,16.67
2022-11-04T05:22:52.883Z,18.70
2022-11-04T05:25:20.751Z,18.50
2022-11-04T05:27:48.581Z,17.07
2022-11-04T05:30:16.505Z,16.77
2022-11-04T05:32:44.299Z,14.40
2022-11-04T05:35:12.204Z,16.83
2022-11-04T05:37:40.013Z,20.67
2022-11-04T05:40:10.473Z,32.33
2022-11-04T05:42:38.261Z,23.83
2022-11-04T05:45:06.995Z,18.03
2022-11-04T05:47:34.825Z,30.70
2022-11-04T05:50:02.630Z,42.10
2022-11-04T05:52:30.549Z,24.90
2022-11-04T05:54:58.394Z,20.30
2022-11-04T05:57:27.550Z,21.53
2022-11-04T05:59:55.375Z,21.40
2022-11-04T06:02:23.396Z,19.17
2022-11-04T06:04:51.238Z,19.40
2022-11-04T06:07:19.092Z,19.70
2022-11-04T06:09:46.885Z,19.40
2022-11-04T06:12:16.703Z,22.63
2022-11-04T06:14:46.017Z,21.07
2022-11-04T06:17:16.053Z,15.63
2022-11-04T06:19:44.297Z,16.57
2022-11-04T06:22:12.880Z,21.03
2022-11-04T06:24:40.991Z,20.17
2022-11-04T06:27:08.878Z,18.17
2022-11-04T06:29:39.964Z,21.70
2022-11-04T06:32:10.126Z,21.13
2022-11-04T06:34:38.244Z,19.63
2022-11-04T06:37:06.451Z,24.20
2022-11-04T06:39:34.329Z,28.77
2022-11-04T06:42:02.896Z,23.43
2022-11-04T06:44:31.016Z,17.97
2022-11-04T06:46:58.838Z,21.23
2022-11-04T06:49:27.999Z,18.50
2022-11-04T06:51:55.817Z,16.83
2022-11-04T06:54:23.678Z,18.57
2022-11-04T06:56:51.446Z,17.53
2022-11-04T06:59:21.847Z,16.80
2022-11-04T07:01:50.992Z,17.80
2022-11-04T07:04:19.303Z,20.40
2022-11-04T07:06:48.443Z,20.00
2022-11-04T07:09:17.102Z,18.83
2022-11-04T07:11:45.912Z,18.57
2022-11-04T07:14:14.659Z,21.27
2022-11-04T07:16:42.503Z,18.87
2022-11-04T07:19:10.283Z,21.20
2022-11-04T07:21:38.425Z,17.30
2022-11-04T07:24:08.265Z,18.37
2022-11-04T07:26:36.085Z,18.80
2022-11-04T07:29:06.560Z,19.27
2022-11-04T07:31:34.475Z,18.00
2022-11-04T07:34:03.027Z,17.57
2022-11-04T07:36:31.211Z,16.53
2022-11-04T07:38:59.032Z,16.60
2022-11-04T07:41:29.408Z,20.07
2022-11-04T07:43:58.814Z,19.00
2022-11-04T07:46:26.667Z,16.63
2022-11-04T07:48:57.475Z,20.37
2022-11-04T07:51:26.200Z,16.57
2022-11-04T07:53:54.173Z,17.83
2022-11-04T07:56:23.977Z,16.73
2022-11-04T07:58:53.821Z,16.07
2022-11-04T08:01:24.404Z,16.10
2022-11-04T08:03:53.079Z,15.50
2022-11-04T08:06:22.250Z,16.03
2022-11-04T08:08:50.244Z,16.17
2022-11-04T08:11:21.313Z,17.63
2022-11-04T08:13:49.223Z,22.17
2022-11-04T08:16:21.840Z,24.33
2022-11-04T08:18:52.572Z,27.40
2022-11-04T08:21:21.711Z,20.93
2022-11-04T08:23:51.433Z,18.77
2022-11-04T08:26:23.353Z,21.10
2022-11-04T08:28:51.786Z,23.90
2022-11-04T08:31:24.202Z,19.57
2022-11-04T08:33:52.705Z,18.53
2022-11-04T08:36:23.256Z,22.43
2022-11-04T08:38:51.947Z,19.00
2022-11-04T08:41:22.852Z,19.10
2022-11-04T08:43:50.671Z,15.67
2022-11-04T08:46:19.263Z,20.90
2022-11-04T08:48:49.455Z,19.13
2022-11-04T08:51:19.310Z,20.60
2022-11-04T08:53:47.115Z,18.17
2022-11-04T08:56:17.195Z,21.70
2022-11-04T08:58:45.505Z,18.20
2022-11-04T09:01:13.757Z,18.93
2022-11-04T09:03:42.261Z,20.47
2022-11-04T09:06:14.682Z,20.77
2022-11-04T09:08:43.382Z,17.80
2022-11-04T09:11:13.284Z,17.97
2022-11-04T09:13:41.806Z,19.57
2022-11-04T09:16:11.545Z,20.87
2022-11-04T09:18:39.959Z,21.33
2022-11-04T09:21:09.637Z,21.77
2022-11-04T09:23:39.274Z,20.90
2022-11-04T09:26:09.640Z,17.47
2022-11-04T09:28:37.713Z,20.93
2022-11-04T09:31:07.414Z,22.10
2022-11-04T09:33:35.351Z,23.00
2022-11-04T09:36:03.379Z,18.17
2022-11-04T09:38:31.206Z,19.87
2022-11-04T09:41:01.745Z,21.17
2022-11-04T09:43:37.805Z,18.50
2022-11-04T09:46:06.152Z,20.43
2022-11-04T09:48:40.841Z,22.70
2022-11-04T09:51:20.811Z,18.00
2022-11-04T09:54:01.094Z,22.80
2022-11-04T09:56:36.287Z,17.80
2022-11-04T09:59:05.138Z,22.30
2022-11-04T10:01:38.840Z,21.70
2022-11-04T10:04:19.263Z,17.37
2022-11-04T10:07:03.508Z,21.97
2022-11-04T10:09:45.539Z,21.63
2022-11-04T10:12:39.902Z,19.33
2022-11-04T10:15:29.084Z,21.10
2022-11-04T10:18:07.859Z,23.03
2022-11-04T10:20:50.987Z,23.23
2022-11-04T10:23:23.962Z,21.47
2022-11-04T10:25:59.395Z,23.27
2022-11-04T10:28:37.016Z,21.23
2022-11-04T10:31:06.171Z,21.00
2022-11-04T10:33:36.478Z,21.80
2022-11-04T10:36:08.171Z,21.77
2022-11-04T10:38:40.293Z,24.75
2022-11-04T10:41:21.248Z,21.20
2022-11-04T10:43:52.161Z,23.97
2022-11-04T10:46:38.247Z,20.83
2022-11-04T10:49:26.152Z,23.23
2022-11-04T10:51:54.796Z,20.73
2022-11-04T10:54:23.318Z,20.27
2022-11-04T10:56:53.618Z,20.70
2022-11-04T10:59:25.919Z,17.77
2022-11-04T11:01:55.591Z,19.90
2022-11-04T11:04:29.511Z,16.60
2022-11-04T11:06:59.310Z,20.80
2022-11-04T11:09:29.889Z,16.43
2022-11-04T11:12:00.998Z,19.70
2022-11-04T11:14:38.684Z,21.27
2022-11-04T11:17:24.208Z,15.53
2022-11-04T11:19:56.873Z,17.20
2022-11-04T11:22:35.605Z,18.43
2022-11-04T11:25:25.490Z,15.40
2022-11-04T11:27:55.711Z,14.97
2022-11-04T11:30:28.383Z,17.27
2022-11-04T11:33:00.109Z,14.70
2022-11-04T11:35:32.191Z,12.93
2022-11-04T11:38:04.041Z,14.00
2022-11-04T11:40:43.819Z,12.27
2022-11-04T11:43:28.446Z,13.57
2022-11-04T11:46:00.888Z,14.67
2022-11-04T11:48:30.323Z,14.87
2022-11-04T11:51:00.164Z,10.90
2022-11-04T11:53:30.114Z,13.87
2022-11-04T11:56:10.538Z,13.23
2022-11-04T12:01:37.806Z,10.77
2022-11-04T12:10:07.055Z,14.90
2022-11-04T12:12:53.039Z,14.20
2022-11-04T12:16:06.459Z,15.90
2022-11-04T12:19:09.993Z,14.23
2022-11-04T12:21:43.505Z,12.97
2022-11-04T12:24:23.299Z,15.23
2022-11-04T12:26:58.254Z,15.47
2022-11-04T12:29:41.827Z,16.03
2022-11-04T12:32:21.068Z,16.50
2022-11-04T12:35:03.599Z,14.60
2022-11-04T12:37:42.351Z,16.20
2022-11-04T12:40:16.979Z,18.73
2022-11-04T12:43:01.188Z,19.23
2022-11-04T12:45:40.712Z,16.77
2022-11-04T12:48:12.771Z,18.93
2022-11-04T12:50:53.995Z,17.30
2022-11-04T12:53:45.687Z,19.10
2022-11-04T12:56:15.775Z,15.10
2022-11-04T12:59:09.100Z,15.07
2022-11-04T13:01:42.887Z,15.47
2022-11-04T13:04:14.881Z,14.93
2022-11-04T13:06:47.670Z,14.40
2022-11-04T13:09:32.424Z,16.77
2022-11-04T13:12:05.927Z,16.90
2022-11-04T13:14:40.623Z,14.60
2022-11-04T13:17:13.500Z,15.40
2022-11-04T13:19:46.550Z,15.47
2022-11-04T13:22:19.337Z,13.70
2022-11-04T13:24:52.379Z,14.40
2022-11-04T13:27:23.615Z,23.93
2022-11-04T13:30:08.619Z,22.63
2022-11-04T13:32:41.738Z,20.77
2022-11-04T13:35:19.192Z,18.53
2022-11-04T13:37:56.317Z,14.27
2022-11-04T13:40:29.304Z,14.33
2022-11-04T13:43:32.457Z,16.30
2022-11-04T13:46:00.645Z,16.73
2022-11-04T13:48:31.601Z,16.57
2022-11-04T13:51:02.724Z,14.03
2022-11-04T13:53:46.595Z,14.10
2022-11-04T13:56:34.159Z,13.67
2022-11-04T13:59:08.245Z,16.53
2022-11-04T14:01:36.480Z,18.40
2022-11-04T14:04:20.905Z,14.70
2022-11-04T14:06:54.859Z,16.30
2022-11-04T14:09:58.515Z,16.77
2022-11-04T14:12:35.437Z,16.10
2022-11-04T14:15:17.643Z,19.13
2022-11-04T14:18:07.852Z,16.17
2022-11-04T14:20:38.389Z,15.47
2022-11-04T14:23:08.823Z,15.40
2022-11-04T14:25:39.971Z,18.83
2022-11-04T14:28:29.096Z,14.57
2022-11-04T14:30:59.777Z,16.80
2022-11-04T14:33:35.527Z,16.90
2022-11-04T14:36:31.178Z,14.90
2022-11-04T14:39:03.657Z,14.73
2022-11-04T14:42:06.747Z,14.70
2022-11-04T14:44:45.711Z,14.17
2022-11-04T14:47:19.849Z,13.23
2022-11-04T14:49:50.917Z,18.27
2022-11-04T14:52:25.583Z,17.77
2022-11-04T14:54:58.292Z,19.30
2022-11-04T14:57:26.252Z,15.80
2022-11-04T14:59:55.411Z,16.17
2022-11-04T15:02:25.949Z,18.03
2022-11-04T15:04:58.720Z,17.63
2022-11-04T15:07:37.898Z,20.37
2022-11-04T15:10:21.054Z,16.00
2022-11-04T15:12:52.286Z,15.83
2022-11-04T15:15:34.044Z,17.17
2022-11-04T15:18:05.237Z,14.07
2022-11-04T15:20:34.308Z,15.23
2022-11-04T15:23:04.925Z,16.37
2022-11-04T15:25:32.779Z,16.40
2022-11-04T15:28:00.879Z,18.27
2022-11-04T15:30:31.911Z,18.80
2022-11-04T15:33:01.917Z,16.27
2022-11-04T15:35:31.424Z,17.17
2022-11-04T15:38:02.009Z,22.83
2022-11-04T15:40:31.105Z,20.47
2022-11-04T15:43:02.406Z,20.40
2022-11-04T15:45:38.132Z,17.93
2022-11-04T15:48:26.823Z,21.23
2022-11-04T15:51:13.462Z,21.73
2022-11-04T15:53:50.924Z,19.60
2022-11-04T15:56:22.215Z,19.87
2022-11-04T15:58:50.574Z,20.87
2022-11-04T16:01:20.752Z,15.60
2022-11-04T16:03:51.871Z,19.97
2022-11-04T16:06:34.669Z,18.47
2022-11-04T16:09:05.583Z,18.30
2022-11-04T16:11:33.454Z,15.00
2022-11-04T16:14:23.386Z,17.17
2022-11-04T16:16:53.924Z,18.33
2022-11-04T16:19:24.361Z,16.80
2022-11-04T16:22:00.732Z,17.83
2022-11-04T16:24:32.728Z,16.73
2022-11-04T16:27:00.595Z,15.23
2022-11-04T16:29:32.140Z,16.80
2022-11-04T16:32:18.072Z,19.07
2022-11-04T16:34:47.093Z,17.47
2022-11-04T16:37:14.930Z,18.70
2022-11-04T16:39:45.147Z,20.17
2022-11-04T16:42:15.219Z,19.83
2022-11-04T16:44:49.481Z,16.80
2022-11-04T16:47:20.092Z,17.83
2022-11-04T16:49:48.268Z,19.27
2022-11-04T16:52:21.453Z,14.80
2022-11-04T16:54:49.331Z,19.43
2022-11-04T16:57:17.772Z,17.37
2022-11-04T16:59:45.645Z,18.00
2022-11-04T17:02:22.301Z,16.57
2022-11-04T17:04:50.375Z,20.27
2022-11-04T17:07:18.356Z,17.20
2022-11-04T17:09:46.182Z,17.60
2022-11-04T17:12:14.037Z,19.80
2022-11-04T17:14:41.904Z,16.87
2022-11-04T17:17:11.445Z,21.60
2022-11-04T17:19:40.647Z,28.20
2022-11-04T17:22:09.380Z,28.73
2022-11-04T17:24:37.873Z,28.77
2022-11-04T17:27:06.430Z,24.10
2022-11-04T17:29:37.329Z,28.80
2022-11-04T17:32:06.739Z,25.37
2022-11-04T17:34:40.655Z,25.27
2022-11-04T17:37:13.171Z,27.00
2022-11-04T17:39:41.226Z,27.47
2022-11-04T17:42:26.752Z,37.73
2022-11-04T17:44:54.568Z,38.50
2022-11-04T17:47:22.503Z,29.53
2022-11-04T17:49:50.312Z,28.90
2022-11-04T17:52:19.988Z,29.90
2022-11-04T17:54:47.774Z,27.50
2022-11-04T17:57:15.582Z,24.33
2022-11-04T17:59:43.370Z,27.33
2022-11-04T18:02:11.557Z,23.43
2022-11-04T18:04:39.476Z,27.50
2022-11-04T18:07:07.293Z,41.50
2022-11-04T18:09:36.503Z,39.57
2022-11-04T18:12:22.124Z,27.17
2022-11-04T18:14:50.167Z,24.83
2022-11-04T18:17:18.060Z,23.37
2022-11-04T18:19:45.864Z,22.30
2022-11-04T18:22:13.754Z,25.90
2022-11-04T18:24:43.102Z,25.00
2022-11-04T18:27:11.290Z,23.70
2022-11-04T18:29:39.100Z,26.53
2022-11-04T18:32:07.516Z,24.40
2022-11-04T18:34:35.671Z,27.93
2022-11-04T18:37:03.673Z,26.73
2022-11-04T18:39:31.488Z,26.27
2022-11-04T18:42:00.682Z,23.33
2022-11-04T18:44:28.685Z,29.37
2022-11-04T18:46:56.509Z,28.73
2022-11-04T18:49:24.857Z,34.67
2022-11-04T18:51:52.668Z,32.07
2022-11-04T18:54:20.670Z,32.80
2022-11-04T18:56:48.487Z,31.50
2022-11-04T18:59:18.024Z,31.83
2022-11-04T19:01:46.155Z,30.67
2022-11-04T19:04:14.211Z,32.03
2022-11-04T19:06:44.110Z,26.97
2022-11-04T19:09:46.076Z,32.73
2022-11-04T19:12:23.367Z,29.17
2022-11-04T19:14:53.591Z,29.53
2022-11-04T19:17:21.658Z,32.37
2022-11-04T19:19:49.587Z,26.50
2022-11-04T19:22:17.499Z,31.73
2022-11-04T19:24:45.977Z,30.90
2022-11-04T19:27:14.436Z,31.00
2022-11-04T19:29:42.289Z,31.23
2022-11-04T19:32:14.302Z,31.27
2022-11-04T19:34:43.123Z,28.93
2022-11-04T19:37:11.601Z,32.07
2022-11-04T19:39:39.973Z,32.80
2022-11-04T19:42:25.878Z,32.20
2022-11-04T19:44:53.693Z,36.90
2022-11-04T19:47:22.897Z,34.10
2022-11-04T19:49:50.703Z,21.93
2022-11-04T19:52:18.513Z,16.90
2022-11-04T19:54:46.295Z,13.97
2022-11-04T19:57:14.113Z,10.77
2022-11-04T19:59:41.927Z,7.77
2022-11-04T20:02:11.103Z,7.73
2022-11-04T20:04:40.430Z,6.40
2022-11-04T20:07:08.279Z,8.13
2022-11-04T20:09:36.133Z,9.73
2022-11-04T20:12:32.914Z,7.47
2022-11-04T20:15:00.753Z,7.63
2022-11-04T20:17:28.626Z,7.10
2022-11-04T20:19:57.819Z,9.97
2022-11-04T20:22:25.662Z,8.87
2022-11-04T20:24:53.486Z,5.07
2022-11-04T20:27:21.316Z,5.10
2022-11-04T20:29:49.197Z,4.40
2022-11-04T20:32:17.020Z,4.83
2022-11-04T20:34:45.191Z,4.53
2022-11-04T20:37:14.882Z,4.93
2022-11-04T20:39:43.702Z,3.60
2022-11-04T20:42:11.543Z,4.40
2022-11-04T20:44:39.470Z,2.80
2022-11-04T20:47:07.290Z,3.43
2022-11-04T20:49:35.129Z,4.63
2022-11-04T20:52:04.383Z,5.10
2022-11-04T20:54:33.707Z,4.23
2022-11-04T20:57:01.513Z,4.30
2022-11-04T20:59:29.483Z,3.10
2022-11-04T21:01:57.502Z,3.43
2022-11-04T21:04:25.426Z,3.10
2022-11-04T21:06:53.359Z,3.20
2022-11-04T21:09:22.523Z,3.50
2022-11-04T21:11:51.646Z,3.20
2022-11-04T21:14:20.197Z,3.37
2022-11-04T21:16:48.603Z,3.40
2022-11-04T21:19:17.165Z,3.37
2022-11-04T21:21:46.869Z,3.60
2022-11-04T21:24:16.314Z,13.23
2022-11-04T21:26:45.553Z,9.13
2022-11-04T21:29:16.837Z,5.47
2022-11-04T21:31:46.004Z,4.63
2022-11-04T21:34:14.056Z,4.30
2022-11-04T21:36:42.292Z,3.67
2022-11-04T21:39:11.099Z,3.97
2022-11-04T21:41:39.055Z,3.83
2022-11-04T21:44:09.301Z,3.87
2022-11-04T21:46:38.620Z,3.70
2022-11-04T21:49:06.786Z,4.67
2022-11-04T21:51:35.257Z,4.63
2022-11-04T21:54:06.140Z,4.37
2022-11-04T21:56:34.010Z,3.63
2022-11-04T21:59:02.080Z,4.50
2022-11-04T22:01:31.811Z,4.10
2022-11-04T22:04:02.470Z,5.60
2022-11-04T22:06:34.784Z,4.73
2022-11-04T22:09:04.958Z,5.03
2022-11-04T22:11:34.176Z,4.83
2022-11-04T22:14:03.839Z,5.30
2022-11-04T22:16:33.322Z,5.20
2022-11-04T22:19:05.211Z,4.60
2022-11-04T22:21:33.513Z,4.97
2022-11-04T22:24:02.165Z,5.37
2022-11-04T22:26:32.386Z,5.50
2022-11-04T22:29:01.098Z,5.30
2022-11-04T22:31:30.905Z,5.60
2022-11-04T22:33:59.794Z,6.20
2022-11-04T22:36:29.814Z,5.20
2022-11-04T22:38:57.751Z,4.80
2022-11-04T22:41:27.742Z,4.87
2022-11-04T22:43:56.512Z,5.67
2022-11-04T22:46:26.823Z,5.17
2022-11-04T22:48:55.152Z,4.83
2022-11-04T22:51:23.077Z,6.30
2022-11-04T22:53:57.800Z,5.83
2022-11-04T22:56:26.927Z,6.53
2022-11-04T22:58:54.975Z,5.30
2022-11-04T23:01:23.080Z,4.50
2022-11-04T23:03:51.828Z,4.77
2022-11-04T23:06:20.308Z,5.00
2022-11-04T23:08:48.295Z,4.50
2022-11-04T23:11:38.587Z,4.60
2022-11-04T23:14:32.362Z,3.57
2022-11-04T23:17:18.739Z,3.87
2022-11-04T23:19:46.915Z,3.80
2022-11-04T23:22:32.148Z,3.60
2022-11-04T23:25:10.307Z,3.47
2022-11-04T23:27:55.820Z,3.30
2022-11-04T23:30:26.217Z,3.30
2022-11-04T23:32:56.041Z,4.10
2022-11-04T23:35:54.743Z,11.97
2022-11-04T23:38:23.137Z,6.53
2022-11-04T23:41:06.270Z,7.67
2022-11-04T23:43:35.987Z,3.50
2022-11-04T23:46:21.362Z,3.70
2022-11-04T23:49:21.182Z,3.60
2022-11-04T23:52:06.385Z,3.10
2022-11-04T23:54:51.755Z,3.60
2022-11-04T23:57:37.597Z,4.33
